sensor_id;sensor_type;location;lat;lon;timestamp;temperature;humidity
38480;DHT22;62333;51.980;5.934;2023-02-15T00:00:21;7.80;77.80
38480;DHT22;62333;51.980;5.934;2023-02-15T00:02:47;7.80;77.80
38480;DHT22;62333;51.980;5.934;2023-02-15T00:05:13;7.80;77.90
38480;DHT22;62333;51.980;5.934;2023-02-15T00:07:39;7.80;77.90
38480;DHT22;62333;51.980;5.934;2023-02-15T00:10:05;7.80;78.00
38480;DHT22;62333;51.980;5.934;2023-02-15T00:12:31;7.70;78.20
38480;DHT22;62333;51.980;5.934;2023-02-15T00:14:57;7.70;78.00
38480;DHT22;62333;51.980;5.934;2023-02-15T00:17:22;7.70;78.00
38480;DHT22;62333;51.980;5.934;2023-02-15T00:19:48;7.70;78.00
38480;DHT22;62333;51.980;5.934;2023-02-15T00:22:14;7.60;78.00
38480;DHT22;62333;51.980;5.934;2023-02-15T00:24:40;7.60;78.10
38480;DHT22;62333;51.980;5.934;2023-02-15T00:27:06;7.60;78.20
38480;DHT22;62333;51.980;5.934;2023-02-15T00:29:31;7.50;78.30
38480;DHT22;62333;51.980;5.934;2023-02-15T00:31:57;7.50;78.50
38480;DHT22;62333;51.980;5.934;2023-02-15T00:34:26;7.50;78.60
38480;DHT22;62333;51.980;5.934;2023-02-15T00:36:52;7.40;78.60
38480;DHT22;62333;51.980;5.934;2023-02-15T00:39:18;7.50;78.80
38480;DHT22;62333;51.980;5.934;2023-02-15T00:41:45;7.40;78.80
38480;DHT22;62333;51.980;5.934;2023-02-15T00:44:10;7.40;78.80
38480;DHT22;62333;51.980;5.934;2023-02-15T00:46:36;7.40;78.80
38480;DHT22;62333;51.980;5.934;2023-02-15T00:49:02;7.40;78.90
38480;DHT22;62333;51.980;5.934;2023-02-15T00:51:28;7.40;78.90
38480;DHT22;62333;51.980;5.934;2023-02-15T00:53:54;7.30;78.90
38480;DHT22;62333;51.980;5.934;2023-02-15T00:56:21;7.40;78.90
38480;DHT22;62333;51.980;5.934;2023-02-15T00:58:46;7.30;78.80
38480;DHT22;62333;51.980;5.934;2023-02-15T01:01:15;7.30;78.80
38480;DHT22;62333;51.980;5.934;2023-02-15T01:03:42;7.30;78.80
38480;DHT22;62333;51.980;5.934;2023-02-15T01:06:08;7.30;78.80
38480;DHT22;62333;51.980;5.934;2023-02-15T01:08:34;7.20;78.80
38480;DHT22;62333;51.980;5.934;2023-02-15T01:11:14;7.20;78.70
38480;DHT22;62333;51.980;5.934;2023-02-15T01:13:40;7.20;78.80
38480;DHT22;62333;51.980;5.934;2023-02-15T01:16:07;7.10;78.90
38480;DHT22;62333;51.980;5.934;2023-02-15T01:18:33;7.10;78.90
38480;DHT22;62333;51.980;5.934;2023-02-15T01:21:00;7.10;78.90
38480;DHT22;62333;51.980;5.934;2023-02-15T01:23:33;7.10;79.00
38480;DHT22;62333;51.980;5.934;2023-02-15T01:26:02;7.10;79.10
38480;DHT22;62333;51.980;5.934;2023-02-15T01:28:27;7.00;79.20
38480;DHT22;62333;51.980;5.934;2023-02-15T01:30:53;7.00;79.30
38480;DHT22;62333;51.980;5.934;2023-02-15T01:33:19;7.00;79.40
38480;DHT22;62333;51.980;5.934;2023-02-15T01:35:45;7.00;79.40
38480;DHT22;62333;51.980;5.934;2023-02-15T01:38:12;6.90;79.30
38480;DHT22;62333;51.980;5.934;2023-02-15T01:40:38;6.90;79.50
38480;DHT22;62333;51.980;5.934;2023-02-15T01:43:10;6.90;79.50
38480;DHT22;62333;51.980;5.934;2023-02-15T01:45:36;6.90;79.60
38480;DHT22;62333;51.980;5.934;2023-02-15T01:48:21;6.90;79.70
38480;DHT22;62333;51.980;5.934;2023-02-15T01:50:56;6.90;79.70
38480;DHT22;62333;51.980;5.934;2023-02-15T01:53:38;6.80;79.70
38480;DHT22;62333;51.980;5.934;2023-02-15T01:56:20;6.80;79.70
38480;DHT22;62333;51.980;5.934;2023-02-15T01:58:47;6.80;79.80
38480;DHT22;62333;51.980;5.934;2023-02-15T02:01:15;6.80;79.80
38480;DHT22;62333;51.980;5.934;2023-02-15T02:06:31;6.70;79.90
38480;DHT22;62333;51.980;5.934;2023-02-15T02:08:58;6.70;79.90
38480;DHT22;62333;51.980;5.934;2023-02-15T02:11:24;6.70;80.00
38480;DHT22;62333;51.980;5.934;2023-02-15T02:13:51;6.70;80.00
38480;DHT22;62333;51.980;5.934;2023-02-15T02:27:51;6.50;79.90
38480;DHT22;62333;51.980;5.934;2023-02-15T02:30:44;6.50;79.90
38480;DHT22;62333;51.980;5.934;2023-02-15T02:35:52;6.50;79.90
38480;DHT22;62333;51.980;5.934;2023-02-15T02:38:55;6.40;79.90
38480;DHT22;62333;51.980;5.934;2023-02-15T02:42:15;6.40;79.90
38480;DHT22;62333;51.980;5.934;2023-02-15T02:44:52;6.40;79.90
38480;DHT22;62333;51.980;5.934;2023-02-15T02:47:21;6.40;79.90
38480;DHT22;62333;51.980;5.934;2023-02-15T02:49:52;6.30;79.90
38480;DHT22;62333;51.980;5.934;2023-02-15T02:52:38;6.30;79.90
38480;DHT22;62333;51.980;5.934;2023-02-15T02:58:10;6.30;80.00
38480;DHT22;62333;51.980;5.934;2023-02-15T03:00:46;6.20;80.00
38480;DHT22;62333;51.980;5.934;2023-02-15T03:03:32;6.20;80.10
38480;DHT22;62333;51.980;5.934;2023-02-15T03:06:03;6.20;80.20
38480;DHT22;62333;51.980;5.934;2023-02-15T03:08:36;6.20;80.20
38480;DHT22;62333;51.980;5.934;2023-02-15T03:11:03;6.10;80.20
38480;DHT22;62333;51.980;5.934;2023-02-15T03:13:29;6.10;80.30
38480;DHT22;62333;51.980;5.934;2023-02-15T03:15:56;6.10;80.30
38480;DHT22;62333;51.980;5.934;2023-02-15T03:18:46;6.10;80.30
38480;DHT22;62333;51.980;5.934;2023-02-15T03:21:25;6.10;80.30
38480;DHT22;62333;51.980;5.934;2023-02-15T03:23:57;6.10;80.30
38480;DHT22;62333;51.980;5.934;2023-02-15T03:26:25;6.10;80.40
38480;DHT22;62333;51.980;5.934;2023-02-15T03:28:55;6.10;80.30
38480;DHT22;62333;51.980;5.934;2023-02-15T03:31:26;6.00;80.30
38480;DHT22;62333;51.980;5.934;2023-02-15T03:34:03;6.00;80.40
38480;DHT22;62333;51.980;5.934;2023-02-15T03:39:43;6.00;80.30
38480;DHT22;62333;51.980;5.934;2023-02-15T03:42:16;5.90;80.20
38480;DHT22;62333;51.980;5.934;2023-02-15T03:45:11;5.90;80.20
38480;DHT22;62333;51.980;5.934;2023-02-15T03:47:42;5.90;80.20
38480;DHT22;62333;51.980;5.934;2023-02-15T03:50:30;5.90;80.30
38480;DHT22;62333;51.980;5.934;2023-02-15T03:53:18;5.80;80.30
38480;DHT22;62333;51.980;5.934;2023-02-15T03:55:50;5.80;80.30
38480;DHT22;62333;51.980;5.934;2023-02-15T03:58:18;5.80;80.40
38480;DHT22;62333;51.980;5.934;2023-02-15T04:01:09;5.70;80.40
38480;DHT22;62333;51.980;5.934;2023-02-15T04:03:56;5.70;80.40
38480;DHT22;62333;51.980;5.934;2023-02-15T04:06:23;5.70;80.40
38480;DHT22;62333;51.980;5.934;2023-02-15T04:08:48;5.70;80.50
38480;DHT22;62333;51.980;5.934;2023-02-15T04:11:32;5.70;80.50
38480;DHT22;62333;51.980;5.934;2023-02-15T04:13:58;5.70;80.50
38480;DHT22;62333;51.980;5.934;2023-02-15T04:16:24;5.60;80.50
38480;DHT22;62333;51.980;5.934;2023-02-15T04:18:50;5.60;80.50
38480;DHT22;62333;51.980;5.934;2023-02-15T04:21:34;5.60;80.50
38480;DHT22;62333;51.980;5.934;2023-02-15T04:24:18;5.60;80.50
38480;DHT22;62333;51.980;5.934;2023-02-15T04:27:03;5.60;80.50
38480;DHT22;62333;51.980;5.934;2023-02-15T04:29:30;5.50;80.50
38480;DHT22;62333;51.980;5.934;2023-02-15T04:31:58;5.50;80.60
38480;DHT22;62333;51.980;5.934;2023-02-15T04:34:24;5.50;80.70
38480;DHT22;62333;51.980;5.934;2023-02-15T04:36:50;5.50;80.70
38480;DHT22;62333;51.980;5.934;2023-02-15T04:39:17;5.50;80.80
38480;DHT22;62333;51.980;5.934;2023-02-15T04:41:43;5.50;80.80
38480;DHT22;62333;51.980;5.934;2023-02-15T04:44:09;5.40;80.80
38480;DHT22;62333;51.980;5.934;2023-02-15T04:46:35;5.50;80.80
38480;DHT22;62333;51.980;5.934;2023-02-15T04:49:01;5.40;80.80
38480;DHT22;62333;51.980;5.934;2023-02-15T04:51:26;5.40;80.80
38480;DHT22;62333;51.980;5.934;2023-02-15T04:53:52;5.40;80.80
38480;DHT22;62333;51.980;5.934;2023-02-15T04:56:19;5.40;80.80
38480;DHT22;62333;51.980;5.934;2023-02-15T04:58:45;5.40;80.80
38480;DHT22;62333;51.980;5.934;2023-02-15T05:01:10;5.40;80.90
38480;DHT22;62333;51.980;5.934;2023-02-15T05:03:36;5.30;80.90
38480;DHT22;62333;51.980;5.934;2023-02-15T05:06:03;5.30;80.90
38480;DHT22;62333;51.980;5.934;2023-02-15T05:08:29;5.30;81.00
38480;DHT22;62333;51.980;5.934;2023-02-15T05:10:55;5.30;81.00
38480;DHT22;62333;51.980;5.934;2023-02-15T05:13:20;5.30;81.00
38480;DHT22;62333;51.980;5.934;2023-02-15T05:15:48;5.20;81.00
38480;DHT22;62333;51.980;5.934;2023-02-15T05:18:14;5.20;81.20
38480;DHT22;62333;51.980;5.934;2023-02-15T05:20:40;5.30;81.30
38480;DHT22;62333;51.980;5.934;2023-02-15T05:23:06;5.20;81.30
38480;DHT22;62333;51.980;5.934;2023-02-15T05:25:31;5.20;81.30
38480;DHT22;62333;51.980;5.934;2023-02-15T05:28:15;5.20;81.30
38480;DHT22;62333;51.980;5.934;2023-02-15T05:30:50;5.20;81.30
38480;DHT22;62333;51.980;5.934;2023-02-15T05:33:19;5.20;81.30
38480;DHT22;62333;51.980;5.934;2023-02-15T05:35:45;5.10;81.30
38480;DHT22;62333;51.980;5.934;2023-02-15T05:38:10;5.10;81.30
38480;DHT22;62333;51.980;5.934;2023-02-15T05:40:36;5.10;81.30
38480;DHT22;62333;51.980;5.934;2023-02-15T05:43:02;5.10;81.30
38480;DHT22;62333;51.980;5.934;2023-02-15T05:45:27;5.10;81.40
38480;DHT22;62333;51.980;5.934;2023-02-15T05:47:53;5.10;81.40
38480;DHT22;62333;51.980;5.934;2023-02-15T05:50:19;5.00;81.40
38480;DHT22;62333;51.980;5.934;2023-02-15T05:52:45;5.10;81.50
38480;DHT22;62333;51.980;5.934;2023-02-15T05:55:10;5.00;81.50
38480;DHT22;62333;51.980;5.934;2023-02-15T05:57:36;5.00;81.50
38480;DHT22;62333;51.980;5.934;2023-02-15T06:00:03;5.00;81.50
38480;DHT22;62333;51.980;5.934;2023-02-15T06:02:33;5.00;81.50
38480;DHT22;62333;51.980;5.934;2023-02-15T06:04:59;5.00;81.60
38480;DHT22;62333;51.980;5.934;2023-02-15T06:07:24;5.00;81.60
38480;DHT22;62333;51.980;5.934;2023-02-15T06:09:50;4.90;81.60
38480;DHT22;62333;51.980;5.934;2023-02-15T06:12:16;4.90;81.70
38480;DHT22;62333;51.980;5.934;2023-02-15T06:14:42;4.90;81.70
38480;DHT22;62333;51.980;5.934;2023-02-15T06:17:07;4.90;81.70
38480;DHT22;62333;51.980;5.934;2023-02-15T06:19:33;4.90;81.70
38480;DHT22;62333;51.980;5.934;2023-02-15T06:21:58;4.90;81.80
38480;DHT22;62333;51.980;5.934;2023-02-15T06:24:24;4.90;81.80
38480;DHT22;62333;51.980;5.934;2023-02-15T06:26:50;4.90;81.90
38480;DHT22;62333;51.980;5.934;2023-02-15T06:29:15;4.90;81.90
38480;DHT22;62333;51.980;5.934;2023-02-15T06:31:41;4.80;81.90
38480;DHT22;62333;51.980;5.934;2023-02-15T06:34:07;4.80;81.90
38480;DHT22;62333;51.980;5.934;2023-02-15T06:36:32;4.80;82.00
38480;DHT22;62333;51.980;5.934;2023-02-15T06:38:58;4.80;82.00
38480;DHT22;62333;51.980;5.934;2023-02-15T06:41:24;4.80;82.00
38480;DHT22;62333;51.980;5.934;2023-02-15T06:43:50;4.80;82.10
38480;DHT22;62333;51.980;5.934;2023-02-15T06:46:16;4.80;82.20
38480;DHT22;62333;51.980;5.934;2023-02-15T06:48:41;4.80;82.20
38480;DHT22;62333;51.980;5.934;2023-02-15T06:51:07;4.80;82.30
38480;DHT22;62333;51.980;5.934;2023-02-15T06:53:33;4.70;82.20
38480;DHT22;62333;51.980;5.934;2023-02-15T06:56:06;4.80;82.40
38480;DHT22;62333;51.980;5.934;2023-02-15T06:58:38;4.70;82.40
38480;DHT22;62333;51.980;5.934;2023-02-15T07:01:04;4.80;82.50
38480;DHT22;62333;51.980;5.934;2023-02-15T07:03:30;4.70;82.60
38480;DHT22;62333;51.980;5.934;2023-02-15T07:05:57;4.70;82.60
38480;DHT22;62333;51.980;5.934;2023-02-15T07:08:23;4.70;82.70
38480;DHT22;62333;51.980;5.934;2023-02-15T07:10:50;4.80;82.80
38480;DHT22;62333;51.980;5.934;2023-02-15T07:13:16;4.80;82.80
38480;DHT22;62333;51.980;5.934;2023-02-15T07:15:42;4.80;82.80
38480;DHT22;62333;51.980;5.934;2023-02-15T07:18:07;4.80;82.90
38480;DHT22;62333;51.980;5.934;2023-02-15T07:20:34;4.80;83.60
38480;DHT22;62333;51.980;5.934;2023-02-15T07:23:01;4.80;83.00
38480;DHT22;62333;51.980;5.934;2023-02-15T07:25:27;4.80;83.00
38480;DHT22;62333;51.980;5.934;2023-02-15T07:28:00;4.90;83.20
38480;DHT22;62333;51.980;5.934;2023-02-15T07:30:27;4.90;83.30
38480;DHT22;62333;51.980;5.934;2023-02-15T07:32:57;5.00;83.30
38480;DHT22;62333;51.980;5.934;2023-02-15T07:35:51;5.00;83.50
38480;DHT22;62333;51.980;5.934;2023-02-15T07:38:17;5.00;83.50
38480;DHT22;62333;51.980;5.934;2023-02-15T07:40:44;5.10;83.60
38480;DHT22;62333;51.980;5.934;2023-02-15T07:43:09;5.20;83.70
38480;DHT22;62333;51.980;5.934;2023-02-15T07:45:36;5.20;83.80
38480;DHT22;62333;51.980;5.934;2023-02-15T07:48:03;5.30;83.90
38480;DHT22;62333;51.980;5.934;2023-02-15T07:50:29;5.40;83.90
38480;DHT22;62333;51.980;5.934;2023-02-15T07:52:55;5.50;83.90
38480;DHT22;62333;51.980;5.934;2023-02-15T07:55:21;5.60;84.00
38480;DHT22;62333;51.980;5.934;2023-02-15T07:57:49;5.80;84.10
38480;DHT22;62333;51.980;5.934;2023-02-15T08:00:16;5.90;84.20
38480;DHT22;62333;51.980;5.934;2023-02-15T08:02:49;6.00;84.10
38480;DHT22;62333;51.980;5.934;2023-02-15T08:05:34;6.10;84.10
38480;DHT22;62333;51.980;5.934;2023-02-15T08:08:00;6.20;84.10
38480;DHT22;62333;51.980;5.934;2023-02-15T08:10:26;6.40;84.20
38480;DHT22;62333;51.980;5.934;2023-02-15T08:13:11;6.50;84.10
38480;DHT22;62333;51.980;5.934;2023-02-15T08:15:37;6.60;84.10
38480;DHT22;62333;51.980;5.934;2023-02-15T08:18:03;6.70;84.00
38480;DHT22;62333;51.980;5.934;2023-02-15T08:20:29;6.80;83.90
38480;DHT22;62333;51.980;5.934;2023-02-15T08:22:54;6.90;83.90
38480;DHT22;62333;51.980;5.934;2023-02-15T08:25:20;7.00;83.70
38480;DHT22;62333;51.980;5.934;2023-02-15T08:27:45;7.10;83.50
38480;DHT22;62333;51.980;5.934;2023-02-15T08:30:12;7.20;83.40
38480;DHT22;62333;51.980;5.934;2023-02-15T08:32:39;7.30;83.30
38480;DHT22;62333;51.980;5.934;2023-02-15T08:35:05;7.40;83.00
38480;DHT22;62333;51.980;5.934;2023-02-15T08:37:31;7.50;82.90
38480;DHT22;62333;51.980;5.934;2023-02-15T08:39:56;7.60;82.70
38480;DHT22;62333;51.980;5.934;2023-02-15T08:42:22;7.70;82.60
38480;DHT22;62333;51.980;5.934;2023-02-15T08:44:48;7.80;82.50
38480;DHT22;62333;51.980;5.934;2023-02-15T08:47:15;8.00;82.40
38480;DHT22;62333;51.980;5.934;2023-02-15T08:49:41;8.10;82.20
38480;DHT22;62333;51.980;5.934;2023-02-15T08:52:07;8.20;82.10
38480;DHT22;62333;51.980;5.934;2023-02-15T08:54:33;8.30;82.00
38480;DHT22;62333;51.980;5.934;2023-02-15T08:56:58;8.40;81.70
38480;DHT22;62333;51.980;5.934;2023-02-15T08:59:25;8.50;82.20
38480;DHT22;62333;51.980;5.934;2023-02-15T09:01:53;8.70;81.40
38480;DHT22;62333;51.980;5.934;2023-02-15T09:04:19;8.90;81.30
38480;DHT22;62333;51.980;5.934;2023-02-15T09:06:46;9.10;81.10
38480;DHT22;62333;51.980;5.934;2023-02-15T09:09:13;9.20;80.80
38480;DHT22;62333;51.980;5.934;2023-02-15T09:11:41;9.40;80.60
38480;DHT22;62333;51.980;5.934;2023-02-15T09:14:15;9.60;80.40
38480;DHT22;62333;51.980;5.934;2023-02-15T09:16:44;9.80;80.30
38480;DHT22;62333;51.980;5.934;2023-02-15T09:19:18;9.90;79.80
38480;DHT22;62333;51.980;5.934;2023-02-15T09:21:43;10.10;79.70
38480;DHT22;62333;51.980;5.934;2023-02-15T09:24:11;10.20;79.10
38480;DHT22;62333;51.980;5.934;2023-02-15T09:26:39;10.20;78.10
38480;DHT22;62333;51.980;5.934;2023-02-15T09:29:09;10.20;78.00
38480;DHT22;62333;51.980;5.934;2023-02-15T09:31:46;10.30;77.50
38480;DHT22;62333;51.980;5.934;2023-02-15T09:34:15;10.40;77.30
38480;DHT22;62333;51.980;5.934;2023-02-15T09:36:42;10.50;77.00
38480;DHT22;62333;51.980;5.934;2023-02-15T09:39:16;10.50;76.90
38480;DHT22;62333;51.980;5.934;2023-02-15T09:42:00;10.60;76.90
38480;DHT22;62333;51.980;5.934;2023-02-15T09:44:51;10.70;76.70
38480;DHT22;62333;51.980;5.934;2023-02-15T09:50:52;10.60;75.50
38480;DHT22;62333;51.980;5.934;2023-02-15T10:01:52;10.70;74.90
38480;DHT22;62333;51.980;5.934;2023-02-15T10:16:01;10.90;74.30
38480;DHT22;62333;51.980;5.934;2023-02-15T10:24:36;11.40;74.20
38480;DHT22;62333;51.980;5.934;2023-02-15T10:27:22;11.70;74.00
38480;DHT22;62333;51.980;5.934;2023-02-15T10:30:12;11.90;73.40
38480;DHT22;62333;51.980;5.934;2023-02-15T10:33:08;12.10;73.10
38480;DHT22;62333;51.980;5.934;2023-02-15T10:43:46;12.90;71.50
38480;DHT22;62333;51.980;5.934;2023-02-15T10:54:19;13.80;69.40
38480;DHT22;62333;51.980;5.934;2023-02-15T11:02:46;14.30;68.40
38480;DHT22;62333;51.980;5.934;2023-02-15T11:06:09;14.40;68.20
38480;DHT22;62333;51.980;5.934;2023-02-15T11:08:11;14.60;68.20
38480;DHT22;62333;51.980;5.934;2023-02-15T11:10:59;14.90;68.00
38480;DHT22;62333;51.980;5.934;2023-02-15T11:13:32;15.00;67.40
38480;DHT22;62333;51.980;5.934;2023-02-15T11:16:16;15.10;66.20
38480;DHT22;62333;51.980;5.934;2023-02-15T11:18:53;15.30;65.90
38480;DHT22;62333;51.980;5.934;2023-02-15T11:21:30;15.50;65.60
38480;DHT22;62333;51.980;5.934;2023-02-15T11:24:13;15.70;65.10
38480;DHT22;62333;51.980;5.934;2023-02-15T11:26:53;15.90;64.60
38480;DHT22;62333;51.980;5.934;2023-02-15T11:29:23;16.10;64.50
38480;DHT22;62333;51.980;5.934;2023-02-15T11:31:59;16.30;64.00
38480;DHT22;62333;51.980;5.934;2023-02-15T11:34:31;16.50;62.90
38480;DHT22;62333;51.980;5.934;2023-02-15T11:37:04;16.60;62.90
38480;DHT22;62333;51.980;5.934;2023-02-15T11:39:31;16.80;62.60
38480;DHT22;62333;51.980;5.934;2023-02-15T11:42:01;17.00;62.40
38480;DHT22;62333;51.980;5.934;2023-02-15T11:44:37;17.10;61.80
38480;DHT22;62333;51.980;5.934;2023-02-15T11:47:09;17.30;61.80
38480;DHT22;62333;51.980;5.934;2023-02-15T11:49:36;17.40;60.50
38480;DHT22;62333;51.980;5.934;2023-02-15T11:52:06;17.50;59.90
38480;DHT22;62333;51.980;5.934;2023-02-15T11:54:36;17.60;59.30
38480;DHT22;62333;51.980;5.934;2023-02-15T11:57:15;17.60;57.20
38480;DHT22;62333;51.980;5.934;2023-02-15T11:59:48;17.40;56.00
38480;DHT22;62333;51.980;5.934;2023-02-15T12:02:20;17.30;55.90
38480;DHT22;62333;51.980;5.934;2023-02-15T12:04:56;17.20;55.30
38480;DHT22;62333;51.980;5.934;2023-02-15T12:07:27;17.10;55.20
38480;DHT22;62333;51.980;5.934;2023-02-15T12:12:43;17.00;55.30
38480;DHT22;62333;51.980;5.934;2023-02-15T12:15:11;17.00;55.40
38480;DHT22;62333;51.980;5.934;2023-02-15T12:17:48;17.00;55.40
38480;DHT22;62333;51.980;5.934;2023-02-15T12:22:59;16.80;54.60
38480;DHT22;62333;51.980;5.934;2023-02-15T12:25:52;16.60;54.80
38480;DHT22;62333;51.980;5.934;2023-02-15T12:28:34;16.60;55.30
38480;DHT22;62333;51.980;5.934;2023-02-15T12:31:03;16.60;55.30
38480;DHT22;62333;51.980;5.934;2023-02-15T12:33:41;16.60;55.30
38480;DHT22;62333;51.980;5.934;2023-02-15T12:36:30;16.60;55.20
38480;DHT22;62333;51.980;5.934;2023-02-15T12:39:03;16.70;55.10
38480;DHT22;62333;51.980;5.934;2023-02-15T12:41:29;16.70;55.20
38480;DHT22;62333;51.980;5.934;2023-02-15T12:44:17;16.60;54.90
38480;DHT22;62333;51.980;5.934;2023-02-15T12:49:35;16.50;54.40
38480;DHT22;62333;51.980;5.934;2023-02-15T12:52:22;16.40;54.70
38480;DHT22;62333;51.980;5.934;2023-02-15T12:54:48;16.50;55.00
38480;DHT22;62333;51.980;5.934;2023-02-15T12:57:28;16.60;54.80
38480;DHT22;62333;51.980;5.934;2023-02-15T13:02:41;16.50;54.50
38480;DHT22;62333;51.980;5.934;2023-02-15T13:05:38;16.50;54.80
38480;DHT22;62333;51.980;5.934;2023-02-15T13:08:15;16.40;54.40
38480;DHT22;62333;51.980;5.934;2023-02-15T13:10:53;16.40;54.80
38480;DHT22;62333;51.980;5.934;2023-02-15T13:13:22;16.40;55.00
38480;DHT22;62333;51.980;5.934;2023-02-15T13:16:02;16.50;55.30
38480;DHT22;62333;51.980;5.934;2023-02-15T13:18:39;16.60;54.90
38480;DHT22;62333;51.980;5.934;2023-02-15T13:21:16;16.60;54.70
38480;DHT22;62333;51.980;5.934;2023-02-15T13:23:52;16.60;54.50
38480;DHT22;62333;51.980;5.934;2023-02-15T13:26:21;16.50;54.50
38480;DHT22;62333;51.980;5.934;2023-02-15T13:28:51;16.50;54.60
38480;DHT22;62333;51.980;5.934;2023-02-15T13:31:20;16.40;54.50
38480;DHT22;62333;51.980;5.934;2023-02-15T13:34:11;16.30;54.70
38480;DHT22;62333;51.980;5.934;2023-02-15T13:39:41;16.10;54.80
38480;DHT22;62333;51.980;5.934;2023-02-15T13:42:25;16.00;55.10
38480;DHT22;62333;51.980;5.934;2023-02-15T14:04:41;15.30;56.60
38480;DHT22;62333;51.980;5.934;2023-02-15T14:18:48;15.10;57.10
38480;DHT22;62333;51.980;5.934;2023-02-15T14:21:31;15.00;57.10
38480;DHT22;62333;51.980;5.934;2023-02-15T14:24:33;15.00;57.40
38480;DHT22;62333;51.980;5.934;2023-02-15T14:27:49;15.00;57.60
38480;DHT22;62333;51.980;5.934;2023-02-15T14:29:56;15.00;57.80
38480;DHT22;62333;51.980;5.934;2023-02-15T14:35:00;15.00;57.90
38480;DHT22;62333;51.980;5.934;2023-02-15T14:46:16;15.20;58.30
38480;DHT22;62333;51.980;5.934;2023-02-15T14:48:50;15.20;58.10
38480;DHT22;62333;51.980;5.934;2023-02-15T14:56:46;15.30;58.40
38480;DHT22;62333;51.980;5.934;2023-02-15T14:59:16;15.30;58.40
38480;DHT22;62333;51.980;5.934;2023-02-15T15:02:39;15.30;58.40
38480;DHT22;62333;51.980;5.934;2023-02-15T15:04:48;15.30;58.40
38480;DHT22;62333;51.980;5.934;2023-02-15T15:07:24;15.30;58.50
38480;DHT22;62333;51.980;5.934;2023-02-15T15:18:01;15.20;58.50
38480;DHT22;62333;51.980;5.934;2023-02-15T15:20:48;15.20;58.60
38480;DHT22;62333;51.980;5.934;2023-02-15T15:34:28;15.10;58.80
38480;DHT22;62333;51.980;5.934;2023-02-15T15:42:49;15.00;59.00
38480;DHT22;62333;51.980;5.934;2023-02-15T15:45:46;15.00;59.10
38480;DHT22;62333;51.980;5.934;2023-02-15T15:50:51;14.90;59.20
38480;DHT22;62333;51.980;5.934;2023-02-15T15:53:24;14.90;59.30
38480;DHT22;62333;51.980;5.934;2023-02-15T15:55:54;14.80;59.30
38480;DHT22;62333;51.980;5.934;2023-02-15T15:58:21;14.80;59.50
38480;DHT22;62333;51.980;5.934;2023-02-15T16:00:58;14.70;59.60
38480;DHT22;62333;51.980;5.934;2023-02-15T16:03:27;14.60;59.80
38480;DHT22;62333;51.980;5.934;2023-02-15T16:05:54;14.60;59.90
38480;DHT22;62333;51.980;5.934;2023-02-15T16:08:34;14.60;60.00
38480;DHT22;62333;51.980;5.934;2023-02-15T16:11:19;14.50;60.00
38480;DHT22;62333;51.980;5.934;2023-02-15T16:13:47;14.50;60.20
38480;DHT22;62333;51.980;5.934;2023-02-15T16:16:13;14.40;60.30
38480;DHT22;62333;51.980;5.934;2023-02-15T16:18:46;14.40;60.40
38480;DHT22;62333;51.980;5.934;2023-02-15T16:21:27;14.40;60.50
38480;DHT22;62333;51.980;5.934;2023-02-15T16:27:10;14.40;60.80
38480;DHT22;62333;51.980;5.934;2023-02-15T16:29:39;14.30;60.90
38480;DHT22;62333;51.980;5.934;2023-02-15T16:32:26;14.30;61.00
38480;DHT22;62333;51.980;5.934;2023-02-15T16:35:00;14.30;61.10
38480;DHT22;62333;51.980;5.934;2023-02-15T16:37:32;14.30;61.20
38480;DHT22;62333;51.980;5.934;2023-02-15T16:39:58;14.30;61.40
38480;DHT22;62333;51.980;5.934;2023-02-15T16:42:24;14.20;61.40
38480;DHT22;62333;51.980;5.934;2023-02-15T16:44:56;14.20;61.50
38480;DHT22;62333;51.980;5.934;2023-02-15T16:47:29;14.20;61.70
38480;DHT22;62333;51.980;5.934;2023-02-15T16:49:57;14.20;61.80
38480;DHT22;62333;51.980;5.934;2023-02-15T16:52:26;14.10;61.80
38480;DHT22;62333;51.980;5.934;2023-02-15T16:54:58;14.10;61.90
38480;DHT22;62333;51.980;5.934;2023-02-15T16:57:31;14.10;62.00
38480;DHT22;62333;51.980;5.934;2023-02-15T17:00:20;14.00;62.00
38480;DHT22;62333;51.980;5.934;2023-02-15T17:05:44;14.00;62.20
38480;DHT22;62333;51.980;5.934;2023-02-15T17:08:35;13.90;62.20
38480;DHT22;62333;51.980;5.934;2023-02-15T17:11:22;13.90;62.20
38480;DHT22;62333;51.980;5.934;2023-02-15T17:16:43;13.80;62.40
38480;DHT22;62333;51.980;5.934;2023-02-15T17:19:40;13.80;62.50
38480;DHT22;62333;51.980;5.934;2023-02-15T17:22:20;13.70;62.70
38480;DHT22;62333;51.980;5.934;2023-02-15T17:24:48;13.60;62.70
38480;DHT22;62333;51.980;5.934;2023-02-15T17:27:22;13.60;62.90
38480;DHT22;62333;51.980;5.934;2023-02-15T17:29:52;13.50;62.90
38480;DHT22;62333;51.980;5.934;2023-02-15T17:32:29;13.50;63.00
38480;DHT22;62333;51.980;5.934;2023-02-15T17:35:23;13.40;63.20
38480;DHT22;62333;51.980;5.934;2023-02-15T17:38:06;13.40;63.30
38480;DHT22;62333;51.980;5.934;2023-02-15T17:40:40;13.30;63.30
38480;DHT22;62333;51.980;5.934;2023-02-15T17:43:06;13.30;63.40
38480;DHT22;62333;51.980;5.934;2023-02-15T17:45:34;13.20;63.50
38480;DHT22;62333;51.980;5.934;2023-02-15T17:48:04;13.20;63.50
38480;DHT22;62333;51.980;5.934;2023-02-15T17:50:31;13.10;63.60
38480;DHT22;62333;51.980;5.934;2023-02-15T17:52:58;13.10;63.70
38480;DHT22;62333;51.980;5.934;2023-02-15T17:55:26;13.10;63.80
38480;DHT22;62333;51.980;5.934;2023-02-15T17:58:15;13.00;63.90
38480;DHT22;62333;51.980;5.934;2023-02-15T18:00:48;13.00;63.90
38480;DHT22;62333;51.980;5.934;2023-02-15T18:03:53;13.00;64.00
38480;DHT22;62333;51.980;5.934;2023-02-15T18:06:40;12.90;64.00
38480;DHT22;62333;51.980;5.934;2023-02-15T18:09:24;12.90;64.10
38480;DHT22;62333;51.980;5.934;2023-02-15T18:12:20;12.80;64.10
38480;DHT22;62333;51.980;5.934;2023-02-15T18:14:47;12.90;64.20
38480;DHT22;62333;51.980;5.934;2023-02-15T18:17:14;12.80;64.20
38480;DHT22;62333;51.980;5.934;2023-02-15T18:19:42;12.80;64.20
38480;DHT22;62333;51.980;5.934;2023-02-15T18:22:12;12.80;64.30
38480;DHT22;62333;51.980;5.934;2023-02-15T18:24:38;12.80;64.40
38480;DHT22;62333;51.980;5.934;2023-02-15T18:27:04;12.70;64.40
38480;DHT22;62333;51.980;5.934;2023-02-15T18:29:31;12.70;64.40
38480;DHT22;62333;51.980;5.934;2023-02-15T18:31:58;12.70;64.50
38480;DHT22;62333;51.980;5.934;2023-02-15T18:34:31;12.70;64.60
38480;DHT22;62333;51.980;5.934;2023-02-15T18:36:58;12.60;64.60
38480;DHT22;62333;51.980;5.934;2023-02-15T18:41:54;12.60;64.70
38480;DHT22;62333;51.980;5.934;2023-02-15T18:44:20;12.60;64.70
38480;DHT22;62333;51.980;5.934;2023-02-15T18:46:46;12.60;64.80
38480;DHT22;62333;51.980;5.934;2023-02-15T18:49:12;12.60;64.80
38480;DHT22;62333;51.980;5.934;2023-02-15T18:51:37;12.60;64.80
38480;DHT22;62333;51.980;5.934;2023-02-15T18:54:20;12.60;64.90
38480;DHT22;62333;51.980;5.934;2023-02-15T18:56:54;12.60;65.00
38480;DHT22;62333;51.980;5.934;2023-02-15T18:59:22;12.50;65.00
38480;DHT22;62333;51.980;5.934;2023-02-15T19:01:49;12.50;65.10
38480;DHT22;62333;51.980;5.934;2023-02-15T19:04:15;12.50;65.20